createdAt,value
2023-04-30T00:02:18.964Z,9.80
2023-04-30T00:04:47.554Z,8.55
2023-04-30T00:07:17.374Z,8.57
2023-04-30T00:09:45.993Z,6.78
2023-04-30T00:12:14.617Z,7.70
2023-04-30T00:14:43.175Z,7.55
2023-04-30T00:17:11.800Z,6.80
2023-04-30T00:19:40.312Z,6.82
2023-04-30T00:22:09.579Z,6.72
2023-04-30T00:24:39.446Z,8.20
2023-04-30T00:27:07.971Z,7.80
2023-04-30T00:29:37.614Z,9.25
2023-04-30T00:32:06.725Z,7.13
2023-04-30T00:34:35.264Z,7.43
2023-04-30T00:37:03.817Z,6.57
2023-04-30T00:39:32.260Z,7.28
2023-04-30T00:42:02.476Z,6.88
2023-04-30T00:44:31.052Z,7.22
2023-04-30T00:46:59.547Z,7.45
2023-04-30T00:49:28.311Z,7.55
2023-04-30T00:51:57.352Z,6.00
2023-04-30T00:54:27.084Z,6.25
2023-04-30T00:56:55.716Z,6.18
2023-04-30T00:59:25.877Z,7.45
2023-04-30T01:01:55.182Z,6.65
2023-04-30T01:04:23.672Z,6.30
2023-04-30T01:06:52.431Z,7.30
2023-04-30T01:09:21.147Z,7.18
2023-04-30T01:11:58.468Z,5.80
2023-04-30T01:14:32.080Z,6.10
2023-04-30T01:17:07.465Z,5.47
2023-04-30T01:19:40.135Z,5.97
2023-04-30T01:22:13.111Z,5.55
2023-04-30T01:25:03.700Z,5.30
2023-04-30T01:27:55.753Z,5.90
2023-04-30T01:30:25.819Z,5.07
2023-04-30T01:32:54.498Z,5.30
2023-04-30T01:35:30.994Z,6.38
2023-04-30T01:38:09.224Z,6.63
2023-04-30T01:40:44.285Z,5.70
2023-04-30T01:43:23.832Z,5.07
2023-04-30T01:46:11.540Z,6.18
2023-04-30T01:48:47.868Z,5.25
2023-04-30T01:51:26.064Z,5.47
2023-04-30T01:53:59.442Z,4.88
2023-04-30T01:56:38.002Z,7.88
2023-04-30T01:59:09.541Z,4.80
2023-04-30T02:01:38.357Z,5.80
2023-04-30T02:04:06.961Z,5.47
2023-04-30T02:06:35.548Z,5.43
2023-04-30T02:09:06.165Z,5.60
2023-04-30T02:11:34.921Z,4.93
2023-04-30T02:14:03.446Z,4.45
2023-04-30T02:16:33.320Z,4.70
2023-04-30T02:19:01.933Z,4.65
2023-04-30T02:21:31.458Z,4.78
2023-04-30T02:23:59.995Z,6.43
2023-04-30T02:26:28.707Z,5.53
2023-04-30T02:28:57.251Z,5.47
2023-04-30T02:31:25.891Z,4.90
2023-04-30T02:33:55.901Z,5.93
2023-04-30T02:36:24.430Z,5.45
2023-04-30T02:38:52.936Z,5.32
2023-04-30T02:41:21.761Z,5.95
2023-04-30T02:43:50.316Z,5.40
2023-04-30T02:46:19.303Z,5.25
2023-04-30T02:48:47.897Z,5.65
2023-04-30T02:51:18.235Z,6.10
2023-04-30T02:53:46.799Z,5.60
2023-04-30T02:56:15.474Z,5.22
2023-04-30T02:58:43.980Z,4.90
2023-04-30T03:01:12.723Z,5.82
2023-04-30T03:03:41.382Z,5.63
2023-04-30T03:06:10.019Z,4.30
2023-04-30T03:08:39.886Z,6.10
2023-04-30T03:11:08.388Z,4.25
2023-04-30T03:13:36.942Z,5.00
2023-04-30T03:16:06.636Z,5.93
2023-04-30T03:18:35.123Z,5.53
2023-04-30T03:21:03.668Z,4.95
2023-04-30T03:23:32.456Z,5.57
2023-04-30T03:26:02.537Z,6.75
2023-04-30T03:28:30.990Z,5.25
2023-04-30T03:31:00.810Z,5.18
2023-04-30T03:33:29.441Z,6.55
2023-04-30T03:35:58.015Z,5.85
2023-04-30T03:38:26.563Z,6.28
2023-04-30T03:40:55.075Z,5.80
2023-04-30T03:43:24.967Z,5.50
2023-04-30T03:45:53.605Z,4.85
2023-04-30T03:48:22.510Z,5.57
2023-04-30T03:50:51.001Z,5.35
2023-04-30T03:53:19.508Z,6.00
2023-04-30T03:55:49.228Z,5.63
2023-04-30T03:58:17.718Z,5.78
2023-04-30T04:00:48.513Z,5.25
2023-04-30T04:03:18.033Z,6.65
2023-04-30T04:05:46.624Z,5.95
2023-04-30T04:08:15.381Z,5.25
2023-04-30T04:10:43.918Z,5.30
2023-04-30T04:13:12.738Z,5.45
2023-04-30T04:15:41.409Z,6.30
2023-04-30T04:18:11.351Z,5.90
2023-04-30T04:20:40.766Z,5.40
2023-04-30T04:23:09.644Z,6.20
2023-04-30T04:25:39.407Z,5.95
2023-04-30T04:28:08.010Z,6.07
2023-04-30T04:30:37.746Z,5.55
2023-04-30T04:33:06.933Z,6.47
2023-04-30T04:35:38.553Z,4.82
2023-04-30T04:38:07.497Z,5.40
2023-04-30T04:40:37.301Z,5.50
2023-04-30T04:43:05.781Z,5.95
2023-04-30T04:45:34.314Z,6.05
2023-04-30T04:48:02.943Z,5.93
2023-04-30T04:50:31.503Z,7.30
2023-04-30T04:53:01.681Z,6.32
2023-04-30T04:55:30.118Z,5.57
2023-04-30T04:57:59.183Z,6.55
2023-04-30T05:00:27.771Z,6.28
2023-04-30T05:02:56.645Z,5.40
2023-04-30T05:05:25.270Z,6.75
2023-04-30T05:07:54.997Z,6.82
2023-04-30T05:10:24.900Z,6.07
2023-04-30T05:12:53.580Z,6.65
2023-04-30T05:15:26.378Z,6.45
2023-04-30T05:17:58.694Z,5.72
2023-04-30T05:20:27.284Z,6.15
2023-04-30T05:22:55.892Z,6.47
2023-04-30T05:25:26.909Z,6.55
2023-04-30T05:27:56.313Z,5.97
2023-04-30T05:30:24.785Z,5.68
2023-04-30T05:32:53.696Z,5.45
2023-04-30T05:35:22.429Z,6.40
2023-04-30T05:37:51.070Z,5.13
2023-04-30T05:40:19.708Z,6.07
2023-04-30T05:42:49.625Z,7.78
2023-04-30T05:45:18.405Z,6.15
2023-04-30T05:47:46.979Z,5.38
2023-04-30T05:50:15.664Z,5.63
2023-04-30T05:52:44.231Z,8.15
2023-04-30T05:55:12.825Z,6.97
2023-04-30T05:57:41.327Z,8.77
2023-04-30T06:00:12.598Z,8.43
2023-04-30T06:02:41.179Z,8.57
2023-04-30T06:05:10.150Z,6.70
2023-04-30T06:07:38.821Z,7.47
2023-04-30T06:10:09.417Z,10.07
2023-04-30T06:12:38.112Z,9.13
2023-04-30T06:15:08.272Z,8.13
2023-04-30T06:17:38.197Z,7.10
2023-04-30T06:20:08.249Z,9.32
2023-04-30T06:22:37.047Z,7.45
2023-04-30T06:25:06.279Z,7.97
2023-04-30T06:27:35.017Z,10.63
2023-04-30T06:30:03.518Z,13.43
2023-04-30T06:32:32.166Z,9.45
2023-04-30T06:35:02.165Z,8.50
2023-04-30T06:37:35.800Z,8.07
2023-04-30T06:40:04.932Z,8.18
2023-04-30T06:42:35.334Z,7.95
2023-04-30T06:45:04.720Z,9.77
2023-04-30T06:47:34.611Z,9.93
2023-04-30T06:50:05.176Z,11.45
2023-04-30T06:52:33.859Z,10.13
2023-04-30T06:55:02.526Z,11.98
2023-04-30T06:57:31.934Z,12.35
2023-04-30T07:00:00.672Z,9.75
2023-04-30T07:02:29.229Z,8.90
2023-04-30T07:04:59.002Z,9.70
2023-04-30T07:07:29.205Z,8.95
2023-04-30T07:09:58.054Z,7.85
2023-04-30T07:12:27.208Z,10.57
2023-04-30T07:14:55.978Z,12.52
2023-04-30T07:17:27.407Z,10.68
2023-04-30T07:19:56.631Z,9.57
2023-04-30T07:22:25.638Z,9.63
2023-04-30T07:24:56.393Z,11.93
2023-04-30T07:27:25.275Z,10.57
2023-04-30T07:29:54.230Z,10.65
2023-04-30T07:32:22.963Z,10.27
2023-04-30T07:34:55.118Z,15.43
2023-04-30T07:37:23.890Z,12.18
2023-04-30T07:39:55.762Z,10.45
2023-04-30T07:42:24.832Z,12.05
2023-04-30T07:44:53.987Z,9.00
2023-04-30T07:47:22.778Z,10.90
2023-04-30T07:49:51.463Z,9.73
2023-04-30T07:52:20.093Z,10.25
2023-04-30T07:54:49.432Z,9.23
2023-04-30T07:57:20.274Z,11.20
2023-04-30T07:59:53.090Z,9.02
2023-04-30T08:02:22.172Z,7.35
2023-04-30T08:04:51.004Z,8.85
2023-04-30T08:07:21.161Z,8.00
2023-04-30T08:09:49.997Z,7.50
2023-04-30T08:12:19.992Z,8.00
2023-04-30T08:14:48.632Z,8.30
2023-04-30T08:17:17.650Z,7.85
2023-04-30T08:19:46.359Z,7.18
2023-04-30T08:22:15.201Z,8.05
2023-04-30T08:24:43.915Z,11.80
2023-04-30T08:27:12.779Z,8.35
2023-04-30T08:29:42.750Z,7.32
2023-04-30T08:32:11.637Z,7.68
2023-04-30T08:34:41.495Z,7.78
2023-04-30T08:37:10.151Z,7.68
2023-04-30T08:39:38.728Z,5.95
2023-04-30T08:42:10.801Z,6.07
2023-04-30T08:44:44.024Z,6.95
2023-04-30T08:47:14.975Z,7.68
2023-04-30T08:49:44.882Z,5.53
2023-04-30T08:52:13.611Z,6.32
2023-04-30T08:54:43.596Z,6.93
2023-04-30T08:57:12.444Z,6.18
2023-04-30T08:59:41.636Z,6.40
2023-04-30T09:02:11.086Z,6.40
2023-04-30T09:04:41.110Z,6.10
2023-04-30T09:07:12.018Z,6.13
2023-04-30T09:09:40.849Z,6.63
2023-04-30T09:12:17.866Z,6.65
2023-04-30T09:15:01.559Z,7.72
2023-04-30T09:17:30.998Z,5.10
2023-04-30T09:20:10.139Z,6.63
2023-04-30T09:22:40.655Z,6.90
2023-04-30T09:25:11.280Z,6.40
2023-04-30T09:27:39.768Z,5.53
2023-04-30T09:30:10.267Z,6.10
2023-04-30T09:32:56.406Z,5.90
2023-04-30T09:35:33.527Z,5.25
2023-04-30T09:38:03.070Z,5.55
2023-04-30T09:40:38.196Z,5.40
2023-04-30T09:43:07.311Z,7.18
2023-04-30T09:45:47.501Z,5.20
2023-04-30T09:48:18.063Z,5.30
2023-04-30T09:50:48.289Z,6.43
2023-04-30T09:53:18.926Z,6.20
2023-04-30T09:55:49.036Z,5.13
2023-04-30T09:58:18.889Z,5.30
2023-04-30T10:00:49.623Z,5.38
2023-04-30T10:03:18.294Z,6.43
2023-04-30T10:05:49.695Z,4.07
2023-04-30T10:08:23.178Z,4.43
2023-04-30T10:10:58.613Z,4.18
2023-04-30T10:13:31.390Z,5.22
2023-04-30T10:16:02.407Z,5.05
2023-04-30T10:18:36.210Z,6.75
2023-04-30T10:21:12.581Z,4.80
2023-04-30T10:23:43.401Z,5.25
2023-04-30T10:26:13.074Z,5.60
2023-04-30T10:28:43.314Z,6.40
2023-04-30T10:31:13.936Z,5.32
2023-04-30T10:33:50.764Z,4.93
2023-04-30T10:36:28.142Z,5.20
2023-04-30T10:38:56.844Z,3.92
2023-04-30T10:41:28.098Z,3.75
2023-04-30T10:44:01.821Z,4.43
2023-04-30T10:46:30.774Z,3.90
2023-04-30T10:49:00.215Z,3.40
2023-04-30T10:54:27.741Z,4.20
2023-04-30T10:57:11.212Z,3.35
2023-04-30T10:59:43.638Z,4.10
2023-04-30T11:02:12.812Z,3.38
2023-04-30T11:05:12.855Z,3.70
2023-04-30T11:07:52.355Z,3.80
2023-04-30T11:10:25.389Z,3.95
2023-04-30T11:12:57.184Z,3.90
2023-04-30T11:15:27.464Z,3.00
2023-04-30T11:17:59.662Z,3.40
2023-04-30T11:20:30.111Z,4.57
2023-04-30T11:23:21.800Z,3.40
2023-04-30T11:26:01.724Z,3.00
2023-04-30T11:28:31.431Z,3.63
2023-04-30T11:31:02.690Z,3.90
2023-04-30T11:33:32.839Z,4.45
2023-04-30T11:36:02.561Z,3.53
2023-04-30T11:38:35.456Z,3.40
2023-04-30T11:41:06.363Z,3.97
2023-04-30T11:43:36.177Z,3.85
2023-04-30T11:46:08.574Z,3.33
2023-04-30T11:48:39.327Z,3.55
2023-04-30T11:51:16.666Z,3.67
2023-04-30T11:53:47.951Z,3.45
2023-04-30T11:56:22.333Z,3.67
2023-04-30T12:01:22.565Z,3.40
2023-04-30T12:03:53.603Z,3.05
2023-04-30T12:06:27.812Z,3.67
2023-04-30T12:08:58.421Z,3.05
2023-04-30T12:11:31.013Z,4.22
2023-04-30T12:14:05.179Z,3.33
2023-04-30T12:16:43.227Z,3.00
2023-04-30T12:19:13.088Z,3.85
2023-04-30T12:21:46.657Z,3.45
2023-04-30T12:24:17.815Z,2.53
2023-04-30T12:26:51.217Z,3.60
2023-04-30T12:29:20.700Z,2.97
2023-04-30T12:31:52.109Z,2.75
2023-04-30T12:34:20.893Z,2.50
2023-04-30T12:36:49.721Z,2.40
2023-04-30T12:39:19.388Z,3.35
2023-04-30T12:41:50.723Z,2.85
2023-04-30T12:44:24.956Z,2.78
2023-04-30T12:49:28.001Z,2.55
2023-04-30T12:52:01.665Z,2.13
2023-04-30T12:54:32.692Z,2.25
2023-04-30T12:57:05.319Z,2.25
2023-04-30T12:59:36.079Z,2.58
2023-04-30T13:02:13.207Z,2.17
2023-04-30T13:04:43.693Z,2.78
2023-04-30T13:07:12.582Z,2.58
2023-04-30T13:09:41.995Z,3.00
2023-04-30T13:12:12.962Z,2.70
2023-04-30T13:14:41.963Z,2.47
2023-04-30T13:17:14.800Z,1.95
2023-04-30T13:19:44.067Z,3.00
2023-04-30T13:22:15.620Z,3.33
2023-04-30T13:24:45.418Z,2.65
2023-04-30T13:27:19.034Z,2.45
2023-04-30T13:29:49.911Z,2.17
2023-04-30T13:32:18.806Z,2.38
2023-04-30T13:34:48.361Z,2.75
2023-04-30T13:37:16.905Z,2.33
2023-04-30T13:39:45.464Z,2.70
2023-04-30T13:42:15.679Z,2.55
2023-04-30T13:44:47.953Z,2.08
2023-04-30T13:47:16.894Z,1.50
2023-04-30T13:49:45.830Z,2.05
2023-04-30T13:52:14.541Z,2.55
2023-04-30T13:54:43.712Z,2.40
2023-04-30T13:57:12.317Z,2.33
2023-04-30T13:59:40.876Z,2.38
2023-04-30T14:02:11.021Z,2.25
2023-04-30T14:04:39.734Z,2.35
2023-04-30T14:07:08.945Z,1.50
2023-04-30T14:09:37.752Z,2.10
2023-04-30T14:12:06.786Z,2.10
2023-04-30T14:14:36.429Z,1.55
2023-04-30T14:17:06.571Z,2.30
2023-04-30T14:19:36.963Z,1.90
2023-04-30T14:22:05.998Z,2.22
2023-04-30T14:24:35.474Z,2.22
2023-04-30T14:27:04.882Z,2.35
2023-04-30T14:29:33.670Z,1.85
2023-04-30T14:32:04.266Z,2.58
2023-04-30T14:34:32.934Z,2.42
2023-04-30T14:37:03.967Z,2.45
2023-04-30T14:39:32.614Z,2.63
2023-04-30T14:42:01.752Z,2.13
2023-04-30T14:44:30.513Z,1.75
2023-04-30T14:46:59.220Z,2.20
2023-04-30T14:49:28.023Z,2.10
2023-04-30T14:51:56.744Z,2.25
2023-04-30T14:54:26.705Z,2.17
2023-04-30T14:56:55.241Z,2.45
2023-04-30T14:59:24.241Z,2.17
2023-04-30T15:01:52.736Z,2.47
2023-04-30T15:04:21.595Z,2.25
2023-04-30T15:06:50.711Z,2.88
2023-04-30T15:09:19.922Z,2.25
2023-04-30T15:11:49.880Z,2.50
2023-04-30T15:14:18.609Z,2.13
2023-04-30T15:16:49.306Z,2.28
2023-04-30T15:19:18.222Z,1.45
2023-04-30T15:21:48.946Z,2.20
2023-04-30T15:24:18.084Z,3.13
2023-04-30T15:26:46.745Z,2.28
2023-04-30T15:29:17.375Z,3.03
2023-04-30T15:31:46.217Z,1.83
2023-04-30T15:34:14.960Z,2.05
2023-04-30T15:36:43.758Z,2.42
2023-04-30T15:39:12.547Z,2.58
2023-04-30T15:41:41.295Z,2.33
2023-04-30T15:44:09.778Z,2.35
2023-04-30T15:46:39.923Z,1.85
2023-04-30T15:49:08.781Z,2.60
2023-04-30T15:51:39.707Z,2.40
2023-04-30T15:54:10.943Z,2.50
2023-04-30T15:56:39.747Z,1.63
2023-04-30T15:59:08.427Z,2.30
2023-04-30T16:01:37.057Z,2.30
2023-04-30T16:04:07.489Z,2.47
2023-04-30T16:06:36.703Z,2.00
2023-04-30T16:09:07.714Z,2.83
2023-04-30T16:11:36.616Z,2.10
2023-04-30T16:14:05.138Z,1.75
2023-04-30T16:16:33.790Z,2.88
2023-04-30T16:19:02.473Z,1.90
2023-04-30T16:21:33.724Z,2.03
2023-04-30T16:24:03.970Z,2.45
2023-04-30T16:26:34.767Z,1.85
2023-04-30T16:29:03.899Z,2.25
2023-04-30T16:31:32.408Z,2.63
2023-04-30T16:34:01.159Z,2.05
2023-04-30T16:36:29.689Z,2.00
2023-04-30T16:38:59.542Z,1.77
2023-04-30T16:41:28.192Z,2.50
2023-04-30T16:43:56.877Z,1.67
2023-04-30T16:46:25.512Z,2.60
2023-04-30T16:48:54.499Z,1.42
2023-04-30T16:51:22.900Z,1.98
2023-04-30T16:53:51.318Z,2.03
2023-04-30T16:56:21.513Z,1.98
2023-04-30T16:58:50.083Z,1.92
2023-04-30T17:01:19.210Z,1.88
2023-04-30T17:03:48.027Z,2.28
2023-04-30T17:06:16.773Z,2.45
2023-04-30T17:08:48.131Z,2.72
2023-04-30T17:11:20.609Z,2.25
2023-04-30T17:13:50.640Z,2.55
2023-04-30T17:16:19.588Z,3.63
2023-04-30T17:18:48.200Z,2.47
2023-04-30T17:21:17.103Z,1.83
2023-04-30T17:23:45.952Z,1.88
2023-04-30T17:26:14.872Z,2.75
2023-04-30T17:28:44.076Z,1.55
2023-04-30T17:31:14.675Z,2.13
2023-04-30T17:33:44.121Z,1.70
2023-04-30T17:36:14.750Z,1.30
2023-04-30T17:38:43.521Z,1.73
2023-04-30T17:41:12.969Z,2.00
2023-04-30T17:43:42.253Z,2.20
2023-04-30T17:46:11.743Z,2.65
2023-04-30T17:48:42.068Z,3.33
2023-04-30T17:51:11.092Z,1.83
2023-04-30T17:53:40.589Z,1.85
2023-04-30T17:56:10.059Z,2.10
2023-04-30T17:58:40.112Z,2.83
2023-04-30T18:01:09.214Z,1.80
2023-04-30T18:03:38.613Z,2.72
2023-04-30T18:06:09.462Z,2.15
2023-04-30T18:08:38.265Z,2.17
2023-04-30T18:11:08.577Z,3.90
2023-04-30T18:13:38.112Z,1.92
2023-04-30T18:16:08.330Z,2.33
2023-04-30T18:18:37.241Z,1.67
2023-04-30T18:21:08.690Z,2.22
2023-04-30T18:23:37.910Z,2.83
2023-04-30T18:26:07.353Z,3.25
2023-04-30T18:28:36.362Z,2.90
2023-04-30T18:31:05.280Z,2.95
2023-04-30T18:33:34.408Z,1.90
2023-04-30T18:36:06.070Z,2.30
2023-04-30T18:38:37.957Z,2.08
2023-04-30T18:41:08.209Z,1.55
2023-04-30T18:43:37.817Z,1.70
2023-04-30T18:46:06.969Z,1.50
2023-04-30T18:48:36.514Z,2.72
2023-04-30T18:51:05.540Z,3.00
2023-04-30T18:53:34.639Z,2.85
2023-04-30T18:56:05.075Z,2.97
2023-04-30T18:58:33.688Z,2.45
2023-04-30T19:01:02.515Z,2.25
2023-04-30T19:03:31.875Z,3.25
2023-04-30T19:06:01.212Z,2.90
2023-04-30T19:08:30.904Z,2.95
2023-04-30T19:11:00.390Z,1.88
2023-04-30T19:13:31.717Z,2.80
2023-04-30T19:16:02.936Z,4.20
2023-04-30T19:18:32.028Z,3.35
2023-04-30T19:21:02.204Z,3.50
2023-04-30T19:23:31.754Z,3.05
2023-04-30T19:26:03.120Z,3.08
2023-04-30T19:28:33.294Z,3.42
2023-04-30T19:31:03.251Z,3.58
2023-04-30T19:33:36.747Z,3.33
2023-04-30T19:36:06.390Z,2.67
2023-04-30T19:38:35.465Z,2.75
2023-04-30T19:41:04.852Z,2.40
2023-04-30T19:43:35.736Z,2.67
2023-04-30T19:46:04.963Z,2.67
2023-04-30T19:48:34.233Z,3.17
2023-04-30T19:51:04.931Z,2.67
2023-04-30T19:53:33.868Z,2.67
2023-04-30T19:56:02.971Z,2.70
2023-04-30T19:58:31.859Z,2.42
2023-04-30T20:01:02.123Z,1.90
2023-04-30T20:03:31.142Z,3.70
2023-04-30T20:06:00.079Z,2.05
2023-04-30T20:08:28.953Z,2.83
2023-04-30T20:10:58.503Z,2.88
2023-04-30T20:13:28.209Z,2.72
2023-04-30T20:15:57.238Z,3.30
2023-04-30T20:18:27.674Z,2.63
2023-04-30T20:20:58.291Z,2.45
2023-04-30T20:23:27.061Z,3.17
2023-04-30T20:25:55.676Z,2.65
2023-04-30T20:28:24.526Z,2.42
2023-04-30T20:30:53.141Z,1.85
2023-04-30T20:33:21.941Z,2.55
2023-04-30T20:35:52.445Z,2.30
2023-04-30T20:38:21.924Z,3.38
2023-04-30T20:40:50.775Z,2.33
2023-04-30T20:43:20.147Z,3.53
2023-04-30T20:45:49.045Z,3.17
2023-04-30T20:48:18.419Z,3.70
2023-04-30T20:50:47.758Z,2.72
2023-04-30T20:53:18.078Z,3.22
2023-04-30T20:55:47.076Z,2.83
2023-04-30T20:58:16.182Z,2.55
2023-04-30T21:00:45.106Z,4.20
2023-04-30T21:03:14.179Z,2.85
2023-04-30T21:05:43.241Z,3.33
2023-04-30T21:08:12.490Z,3.85
2023-04-30T21:10:45.470Z,2.78
2023-04-30T21:13:15.071Z,3.83
2023-04-30T21:15:44.021Z,2.13
2023-04-30T21:18:12.979Z,3.33
2023-04-30T21:20:41.922Z,3.97
2023-04-30T21:23:11.512Z,3.72
2023-04-30T21:25:40.375Z,2.67
2023-04-30T21:28:10.957Z,3.72
2023-04-30T21:30:40.102Z,2.88
2023-04-30T21:33:08.890Z,2.60
2023-04-30T21:35:37.977Z,2.55
2023-04-30T21:38:08.273Z,3.42
2023-04-30T21:40:37.549Z,2.20
2023-04-30T21:43:06.396Z,1.75
2023-04-30T21:45:36.606Z,3.40
2023-04-30T21:48:06.377Z,2.38
2023-04-30T21:50:35.688Z,2.58
2023-04-30T21:53:05.028Z,2.97
2023-04-30T21:55:33.652Z,2.63
2023-04-30T21:58:02.222Z,2.80
2023-04-30T22:00:30.914Z,2.45
2023-04-30T22:03:00.913Z,2.42
2023-04-30T22:05:31.867Z,2.38
2023-04-30T22:08:00.431Z,2.95
2023-04-30T22:10:28.980Z,2.60
2023-04-30T22:12:57.486Z,2.47
2023-04-30T22:15:40.896Z,2.33
2023-04-30T22:18:17.337Z,3.53
2023-04-30T22:20:46.180Z,2.97
2023-04-30T22:23:15.708Z,2.58
2023-04-30T22:25:44.380Z,3.15
2023-04-30T22:28:12.990Z,2.65
2023-04-30T22:30:41.486Z,2.70
2023-04-30T22:33:10.196Z,2.83
2023-04-30T22:35:40.324Z,2.28
2023-04-30T22:38:09.073Z,2.60
2023-04-30T22:40:40.455Z,2.70
2023-04-30T22:43:10.703Z,2.45
2023-04-30T22:45:40.584Z,2.72
2023-04-30T22:48:10.609Z,4.07
2023-04-30T22:50:40.964Z,2.72
2023-04-30T22:53:10.283Z,2.92
2023-04-30T22:55:38.852Z,2.83
2023-04-30T22:58:07.389Z,3.88
2023-04-30T23:00:36.021Z,2.50
2023-04-30T23:03:05.123Z,2.25
2023-04-30T23:05:33.771Z,2.58
2023-04-30T23:08:04.415Z,3.95
2023-04-30T23:10:32.896Z,2.97
2023-04-30T23:13:01.383Z,4.50
2023-04-30T23:15:30.041Z,3.17
2023-04-30T23:18:00.390Z,4.10
2023-04-30T23:20:28.986Z,3.05
2023-04-30T23:22:57.644Z,3.75
2023-04-30T23:25:27.531Z,2.80
2023-04-30T23:27:56.648Z,2.50
2023-04-30T23:30:25.901Z,2.80
2023-04-30T23:32:54.725Z,2.40
2023-04-30T23:35:23.318Z,2.10
2023-04-30T23:37:51.810Z,2.80
2023-04-30T23:40:20.439Z,2.00
2023-04-30T23:42:50.276Z,2.10
2023-04-30T23:45:20.830Z,4.30
2023-04-30T23:47:49.459Z,2.55
2023-04-30T23:50:18.180Z,2.38
2023-04-30T23:52:46.862Z,1.92
2023-04-30T23:55:16.135Z,2.88
2023-04-30T23:57:44.591Z,3.85
